sensor_id;sensor_type;location;lat;lon;timestamp;P1;durP1;ratioP1;P2;durP2;ratioP2
70157;SDS011;57524;48.312;7.938;2022-08-14T00:01:02;4.53;;;3.03;;
70157;SDS011;57524;48.312;7.938;2022-08-14T00:03:29;4.88;;;2.92;;
70157;SDS011;57524;48.312;7.938;2022-08-14T00:05:59;5.50;;;3.40;;
70157;SDS011;57524;48.312;7.938;2022-08-14T00:08:27;5.88;;;3.72;;
70157;SDS011;57524;48.312;7.938;2022-08-14T00:10:54;6.32;;;3.60;;
70157;SDS011;57524;48.312;7.938;2022-08-14T00:13:22;7.70;;;3.60;;
70157;SDS011;57524;48.312;7.938;2022-08-14T00:15:53;4.95;;;3.50;;
70157;SDS011;57524;48.312;7.938;2022-08-14T00:18:22;5.80;;;3.50;;
70157;SDS011;57524;48.312;7.938;2022-08-14T00:20:50;7.93;;;3.70;;
70157;SDS011;57524;48.312;7.938;2022-08-14T00:23:19;5.78;;;3.97;;
70157;SDS011;57524;48.312;7.938;2022-08-14T00:25:46;6.93;;;3.80;;
70157;SDS011;57524;48.312;7.938;2022-08-14T00:28:14;6.35;;;3.80;;
70157;SDS011;57524;48.312;7.938;2022-08-14T00:30:41;6.15;;;3.88;;
70157;SDS011;57524;48.312;7.938;2022-08-14T00:33:08;6.78;;;3.60;;
70157;SDS011;57524;48.312;7.938;2022-08-14T00:35:35;5.82;;;3.40;;
70157;SDS011;57524;48.312;7.938;2022-08-14T00:38:01;5.82;;;3.20;;
70157;SDS011;57524;48.312;7.938;2022-08-14T00:40:29;5.93;;;3.33;;
70157;SDS011;57524;48.312;7.938;2022-08-14T00:42:56;6.10;;;3.30;;
70157;SDS011;57524;48.312;7.938;2022-08-14T00:45:23;5.40;;;3.25;;
70157;SDS011;57524;48.312;7.938;2022-08-14T00:47:49;6.22;;;3.50;;
70157;SDS011;57524;48.312;7.938;2022-08-14T00:50:17;5.18;;;3.15;;
70157;SDS011;57524;48.312;7.938;2022-08-14T00:52:46;5.65;;;3.45;;
70157;SDS011;57524;48.312;7.938;2022-08-14T00:55:15;5.82;;;3.30;;
70157;SDS011;57524;48.312;7.938;2022-08-14T00:57:43;5.53;;;3.53;;
70157;SDS011;57524;48.312;7.938;2022-08-14T01:00:11;5.25;;;3.53;;
70157;SDS011;57524;48.312;7.938;2022-08-14T01:02:39;5.93;;;3.60;;
70157;SDS011;57524;48.312;7.938;2022-08-14T01:05:08;6.22;;;3.50;;
70157;SDS011;57524;48.312;7.938;2022-08-14T01:07:48;6.30;;;3.50;;
70157;SDS011;57524;48.312;7.938;2022-08-14T01:10:16;6.05;;;3.40;;
70157;SDS011;57524;48.312;7.938;2022-08-14T01:12:45;5.28;;;3.60;;
70157;SDS011;57524;48.312;7.938;2022-08-14T01:15:13;5.10;;;3.35;;
70157;SDS011;57524;48.312;7.938;2022-08-14T01:17:45;5.88;;;3.50;;
70157;SDS011;57524;48.312;7.938;2022-08-14T01:20:29;5.88;;;3.30;;
70157;SDS011;57524;48.312;7.938;2022-08-14T01:23:15;5.40;;;3.17;;
70157;SDS011;57524;48.312;7.938;2022-08-14T01:25:42;5.47;;;3.22;;
70157;SDS011;57524;48.312;7.938;2022-08-14T01:28:09;5.07;;;3.20;;
70157;SDS011;57524;48.312;7.938;2022-08-14T01:30:36;5.60;;;3.13;;
70157;SDS011;57524;48.312;7.938;2022-08-14T01:33:03;5.20;;;3.33;;
70157;SDS011;57524;48.312;7.938;2022-08-14T01:35:30;5.68;;;3.33;;
70157;SDS011;57524;48.312;7.938;2022-08-14T01:37:57;5.03;;;3.28;;
70157;SDS011;57524;48.312;7.938;2022-08-14T01:40:26;5.22;;;3.67;;
70157;SDS011;57524;48.312;7.938;2022-08-14T01:42:53;5.20;;;3.30;;
70157;SDS011;57524;48.312;7.938;2022-08-14T01:45:20;5.40;;;3.50;;
70157;SDS011;57524;48.312;7.938;2022-08-14T01:47:47;4.65;;;3.20;;
70157;SDS011;57524;48.312;7.938;2022-08-14T01:50:14;4.50;;;3.00;;
70157;SDS011;57524;48.312;7.938;2022-08-14T01:52:42;5.88;;;3.10;;
70157;SDS011;57524;48.312;7.938;2022-08-14T01:55:09;5.20;;;3.25;;
70157;SDS011;57524;48.312;7.938;2022-08-14T01:57:39;4.80;;;3.30;;
70157;SDS011;57524;48.312;7.938;2022-08-14T02:00:10;5.30;;;3.08;;
70157;SDS011;57524;48.312;7.938;2022-08-14T02:02:40;4.80;;;3.40;;
70157;SDS011;57524;48.312;7.938;2022-08-14T02:05:10;5.35;;;3.33;;
70157;SDS011;57524;48.312;7.938;2022-08-14T02:07:37;5.00;;;3.28;;
70157;SDS011;57524;48.312;7.938;2022-08-14T02:10:04;4.90;;;3.30;;
70157;SDS011;57524;48.312;7.938;2022-08-14T02:12:33;5.88;;;3.15;;
70157;SDS011;57524;48.312;7.938;2022-08-14T02:15:01;4.97;;;3.10;;
70157;SDS011;57524;48.312;7.938;2022-08-14T02:17:28;5.43;;;2.95;;
70157;SDS011;57524;48.312;7.938;2022-08-14T02:19:58;4.55;;;3.35;;
70157;SDS011;57524;48.312;7.938;2022-08-14T02:22:25;5.95;;;3.15;;
70157;SDS011;57524;48.312;7.938;2022-08-14T02:24:52;4.90;;;3.40;;
70157;SDS011;57524;48.312;7.938;2022-08-14T02:27:19;5.95;;;3.17;;
70157;SDS011;57524;48.312;7.938;2022-08-14T02:29:46;4.80;;;3.28;;
70157;SDS011;57524;48.312;7.938;2022-08-14T02:32:14;5.63;;;3.50;;
70157;SDS011;57524;48.312;7.938;2022-08-14T02:34:42;4.82;;;3.17;;
70157;SDS011;57524;48.312;7.938;2022-08-14T02:37:09;6.22;;;3.30;;
70157;SDS011;57524;48.312;7.938;2022-08-14T02:39:38;5.40;;;3.60;;
70157;SDS011;57524;48.312;7.938;2022-08-14T02:42:07;5.72;;;3.33;;
70157;SDS011;57524;48.312;7.938;2022-08-14T02:44:36;5.50;;;3.50;;
70157;SDS011;57524;48.312;7.938;2022-08-14T02:47:04;5.15;;;3.33;;
70157;SDS011;57524;48.312;7.938;2022-08-14T02:49:33;5.43;;;3.40;;
70157;SDS011;57524;48.312;7.938;2022-08-14T02:52:00;5.30;;;3.50;;
70157;SDS011;57524;48.312;7.938;2022-08-14T02:54:28;5.18;;;3.47;;
70157;SDS011;57524;48.312;7.938;2022-08-14T02:56:56;5.25;;;3.15;;
70157;SDS011;57524;48.312;7.938;2022-08-14T02:59:24;4.97;;;3.22;;
70157;SDS011;57524;48.312;7.938;2022-08-14T03:01:52;5.60;;;3.33;;
70157;SDS011;57524;48.312;7.938;2022-08-14T03:04:20;5.30;;;3.40;;
70157;SDS011;57524;48.312;7.938;2022-08-14T03:06:48;5.45;;;3.50;;
70157;SDS011;57524;48.312;7.938;2022-08-14T03:09:15;6.13;;;3.55;;
70157;SDS011;57524;48.312;7.938;2022-08-14T03:11:42;5.85;;;3.53;;
70157;SDS011;57524;48.312;7.938;2022-08-14T03:14:09;6.15;;;3.55;;
70157;SDS011;57524;48.312;7.938;2022-08-14T03:16:37;5.95;;;3.53;;
70157;SDS011;57524;48.312;7.938;2022-08-14T03:19:05;5.32;;;3.25;;
70157;SDS011;57524;48.312;7.938;2022-08-14T03:21:33;5.80;;;3.42;;
70157;SDS011;57524;48.312;7.938;2022-08-14T03:24:03;5.75;;;3.58;;
70157;SDS011;57524;48.312;7.938;2022-08-14T03:26:35;5.03;;;3.17;;
70157;SDS011;57524;48.312;7.938;2022-08-14T03:29:03;6.30;;;3.50;;
70157;SDS011;57524;48.312;7.938;2022-08-14T03:31:31;4.95;;;3.53;;
70157;SDS011;57524;48.312;7.938;2022-08-14T03:33:58;5.20;;;3.47;;
70157;SDS011;57524;48.312;7.938;2022-08-14T03:36:25;5.50;;;3.50;;
70157;SDS011;57524;48.312;7.938;2022-08-14T03:38:54;5.35;;;3.67;;
70157;SDS011;57524;48.312;7.938;2022-08-14T03:41:25;5.95;;;3.90;;
70157;SDS011;57524;48.312;7.938;2022-08-14T03:43:53;5.93;;;3.50;;
70157;SDS011;57524;48.312;7.938;2022-08-14T03:46:22;5.88;;;3.80;;
70157;SDS011;57524;48.312;7.938;2022-08-14T03:48:50;5.03;;;3.40;;
70157;SDS011;57524;48.312;7.938;2022-08-14T03:51:19;4.97;;;3.47;;
70157;SDS011;57524;48.312;7.938;2022-08-14T03:53:47;6.60;;;3.60;;
70157;SDS011;57524;48.312;7.938;2022-08-14T03:56:15;6.18;;;3.60;;
70157;SDS011;57524;48.312;7.938;2022-08-14T03:58:45;5.85;;;3.70;;
70157;SDS011;57524;48.312;7.938;2022-08-14T04:01:14;5.53;;;3.70;;
70157;SDS011;57524;48.312;7.938;2022-08-14T04:03:43;5.07;;;3.40;;
70157;SDS011;57524;48.312;7.938;2022-08-14T04:06:10;7.22;;;3.50;;
70157;SDS011;57524;48.312;7.938;2022-08-14T04:08:37;4.95;;;3.50;;
70157;SDS011;57524;48.312;7.938;2022-08-14T04:11:06;5.70;;;3.70;;
70157;SDS011;57524;48.312;7.938;2022-08-14T04:13:34;6.20;;;3.72;;
70157;SDS011;57524;48.312;7.938;2022-08-14T04:16:06;5.57;;;3.70;;
70157;SDS011;57524;48.312;7.938;2022-08-14T04:18:37;5.43;;;3.50;;
70157;SDS011;57524;48.312;7.938;2022-08-14T04:21:05;5.53;;;3.60;;
70157;SDS011;57524;48.312;7.938;2022-08-14T04:23:32;6.30;;;3.30;;
70157;SDS011;57524;48.312;7.938;2022-08-14T04:26:03;6.05;;;3.50;;
70157;SDS011;57524;48.312;7.938;2022-08-14T04:28:33;7.13;;;3.30;;
70157;SDS011;57524;48.312;7.938;2022-08-14T04:31:01;6.03;;;3.72;;
70157;SDS011;57524;48.312;7.938;2022-08-14T04:33:29;6.38;;;3.45;;
70157;SDS011;57524;48.312;7.938;2022-08-14T04:35:56;5.40;;;3.47;;
70157;SDS011;57524;48.312;7.938;2022-08-14T04:38:23;6.03;;;3.65;;
70157;SDS011;57524;48.312;7.938;2022-08-14T04:41:08;5.82;;;3.65;;
70157;SDS011;57524;48.312;7.938;2022-08-14T04:43:52;5.57;;;3.40;;
70157;SDS011;57524;48.312;7.938;2022-08-14T04:46:19;5.70;;;3.50;;
70157;SDS011;57524;48.312;7.938;2022-08-14T04:48:49;5.78;;;3.97;;
70157;SDS011;57524;48.312;7.938;2022-08-14T04:51:17;5.03;;;3.55;;
70157;SDS011;57524;48.312;7.938;2022-08-14T04:53:46;7.82;;;3.80;;
70157;SDS011;57524;48.312;7.938;2022-08-14T04:56:14;4.97;;;3.35;;
70157;SDS011;57524;48.312;7.938;2022-08-14T04:58:46;5.40;;;3.80;;
70157;SDS011;57524;48.312;7.938;2022-08-14T05:01:14;5.75;;;3.42;;
70157;SDS011;57524;48.312;7.938;2022-08-14T05:03:41;5.85;;;3.85;;
70157;SDS011;57524;48.312;7.938;2022-08-14T05:06:10;5.93;;;3.95;;
70157;SDS011;57524;48.312;7.938;2022-08-14T05:08:38;5.53;;;3.63;;
70157;SDS011;57524;48.312;7.938;2022-08-14T05:11:05;5.20;;;3.55;;
70157;SDS011;57524;48.312;7.938;2022-08-14T05:13:33;5.35;;;3.75;;
70157;SDS011;57524;48.312;7.938;2022-08-14T05:16:01;5.57;;;3.47;;
70157;SDS011;57524;48.312;7.938;2022-08-14T05:18:30;5.30;;;3.60;;
70157;SDS011;57524;48.312;7.938;2022-08-14T05:21:00;4.93;;;3.50;;
70157;SDS011;57524;48.312;7.938;2022-08-14T05:23:29;6.80;;;3.75;;
70157;SDS011;57524;48.312;7.938;2022-08-14T05:25:58;6.57;;;3.50;;
70157;SDS011;57524;48.312;7.938;2022-08-14T05:28:27;5.40;;;3.55;;
70157;SDS011;57524;48.312;7.938;2022-08-14T05:30:56;5.15;;;3.50;;
70157;SDS011;57524;48.312;7.938;2022-08-14T05:33:25;5.60;;;3.50;;
70157;SDS011;57524;48.312;7.938;2022-08-14T05:35:54;5.68;;;3.60;;
70157;SDS011;57524;48.312;7.938;2022-08-14T05:38:26;5.72;;;3.42;;
70157;SDS011;57524;48.312;7.938;2022-08-14T05:40:55;5.68;;;3.53;;
70157;SDS011;57524;48.312;7.938;2022-08-14T05:43:22;6.82;;;3.80;;
70157;SDS011;57524;48.312;7.938;2022-08-14T05:45:48;5.53;;;3.75;;
70157;SDS011;57524;48.312;7.938;2022-08-14T05:48:15;6.78;;;3.75;;
70157;SDS011;57524;48.312;7.938;2022-08-14T05:50:42;5.80;;;3.60;;
70157;SDS011;57524;48.312;7.938;2022-08-14T05:53:08;7.43;;;3.95;;
70157;SDS011;57524;48.312;7.938;2022-08-14T05:55:35;7.35;;;4.03;;
70157;SDS011;57524;48.312;7.938;2022-08-14T05:58:04;6.60;;;4.10;;
70157;SDS011;57524;48.312;7.938;2022-08-14T06:00:32;7.20;;;4.28;;
70157;SDS011;57524;48.312;7.938;2022-08-14T06:03:01;6.95;;;3.90;;
70157;SDS011;57524;48.312;7.938;2022-08-14T06:05:29;6.13;;;4.05;;
70157;SDS011;57524;48.312;7.938;2022-08-14T06:07:56;6.28;;;4.10;;
70157;SDS011;57524;48.312;7.938;2022-08-14T06:10:24;7.03;;;4.20;;
70157;SDS011;57524;48.312;7.938;2022-08-14T06:12:51;6.97;;;4.40;;
70157;SDS011;57524;48.312;7.938;2022-08-14T06:15:19;7.78;;;4.53;;
70157;SDS011;57524;48.312;7.938;2022-08-14T06:17:46;11.15;;;6.78;;
70157;SDS011;57524;48.312;7.938;2022-08-14T06:20:15;15.55;;;7.88;;
70157;SDS011;57524;48.312;7.938;2022-08-14T06:22:43;13.02;;;7.05;;
70157;SDS011;57524;48.312;7.938;2022-08-14T06:25:11;13.07;;;7.05;;
70157;SDS011;57524;48.312;7.938;2022-08-14T06:27:40;9.32;;;5.68;;
70157;SDS011;57524;48.312;7.938;2022-08-14T06:30:09;11.43;;;5.03;;
70157;SDS011;57524;48.312;7.938;2022-08-14T06:32:39;8.55;;;5.32;;
70157;SDS011;57524;48.312;7.938;2022-08-14T06:35:06;9.52;;;5.65;;
70157;SDS011;57524;48.312;7.938;2022-08-14T06:37:37;9.10;;;5.07;;
70157;SDS011;57524;48.312;7.938;2022-08-14T06:40:09;8.18;;;4.25;;
70157;SDS011;57524;48.312;7.938;2022-08-14T06:42:38;6.22;;;4.20;;
70157;SDS011;57524;48.312;7.938;2022-08-14T06:45:05;8.77;;;3.78;;
70157;SDS011;57524;48.312;7.938;2022-08-14T06:47:32;5.60;;;3.75;;
70157;SDS011;57524;48.312;7.938;2022-08-14T06:50:01;6.30;;;4.03;;
70157;SDS011;57524;48.312;7.938;2022-08-14T06:52:28;5.70;;;3.65;;
70157;SDS011;57524;48.312;7.938;2022-08-14T06:54:55;5.57;;;3.40;;
70157;SDS011;57524;48.312;7.938;2022-08-14T06:57:22;5.00;;;3.53;;
70157;SDS011;57524;48.312;7.938;2022-08-14T06:59:49;4.95;;;3.28;;
70157;SDS011;57524;48.312;7.938;2022-08-14T07:02:16;4.97;;;3.22;;
70157;SDS011;57524;48.312;7.938;2022-08-14T07:05:02;5.07;;;3.30;;
70157;SDS011;57524;48.312;7.938;2022-08-14T07:07:46;4.95;;;3.20;;
70157;SDS011;57524;48.312;7.938;2022-08-14T07:10:13;4.70;;;2.95;;
70157;SDS011;57524;48.312;7.938;2022-08-14T07:12:40;5.32;;;3.08;;
70157;SDS011;57524;48.312;7.938;2022-08-14T07:15:07;5.45;;;3.10;;
70157;SDS011;57524;48.312;7.938;2022-08-14T07:17:42;4.88;;;3.03;;
70157;SDS011;57524;48.312;7.938;2022-08-14T07:20:11;4.60;;;3.10;;
70157;SDS011;57524;48.312;7.938;2022-08-14T07:22:38;5.00;;;3.00;;
70157;SDS011;57524;48.312;7.938;2022-08-14T07:25:05;5.53;;;3.10;;
70157;SDS011;57524;48.312;7.938;2022-08-14T07:27:32;4.65;;;3.00;;
70157;SDS011;57524;48.312;7.938;2022-08-14T07:30:00;5.40;;;3.00;;
70157;SDS011;57524;48.312;7.938;2022-08-14T07:32:28;4.50;;;3.20;;
70157;SDS011;57524;48.312;7.938;2022-08-14T07:34:54;4.95;;;3.20;;
70157;SDS011;57524;48.312;7.938;2022-08-14T07:37:22;4.70;;;3.03;;
70157;SDS011;57524;48.312;7.938;2022-08-14T07:39:51;5.07;;;3.25;;
70157;SDS011;57524;48.312;7.938;2022-08-14T07:42:20;4.50;;;3.00;;
70157;SDS011;57524;48.312;7.938;2022-08-14T07:44:47;4.40;;;3.00;;
70157;SDS011;57524;48.312;7.938;2022-08-14T07:47:14;4.90;;;2.65;;
70157;SDS011;57524;48.312;7.938;2022-08-14T07:49:41;4.40;;;2.60;;
70157;SDS011;57524;48.312;7.938;2022-08-14T07:52:11;4.28;;;2.92;;
70157;SDS011;57524;48.312;7.938;2022-08-14T07:54:40;4.27;;;2.60;;
70157;SDS011;57524;48.312;7.938;2022-08-14T07:57:07;4.55;;;2.97;;
70157;SDS011;57524;48.312;7.938;2022-08-14T07:59:34;4.93;;;2.90;;
70157;SDS011;57524;48.312;7.938;2022-08-14T08:02:01;4.90;;;2.88;;
70157;SDS011;57524;48.312;7.938;2022-08-14T08:04:29;5.43;;;3.03;;
70157;SDS011;57524;48.312;7.938;2022-08-14T08:06:57;4.60;;;3.00;;
70157;SDS011;57524;48.312;7.938;2022-08-14T08:09:25;4.72;;;2.90;;
70157;SDS011;57524;48.312;7.938;2022-08-14T08:11:55;5.18;;;2.90;;
70157;SDS011;57524;48.312;7.938;2022-08-14T08:14:22;4.20;;;2.60;;
70157;SDS011;57524;48.312;7.938;2022-08-14T08:16:50;5.25;;;3.10;;
70157;SDS011;57524;48.312;7.938;2022-08-14T08:19:17;4.73;;;2.73;;
70157;SDS011;57524;48.312;7.938;2022-08-14T08:21:43;4.30;;;2.90;;
70157;SDS011;57524;48.312;7.938;2022-08-14T08:24:11;5.35;;;2.58;;
70157;SDS011;57524;48.312;7.938;2022-08-14T08:26:38;4.50;;;2.90;;
70157;SDS011;57524;48.312;7.938;2022-08-14T08:29:06;4.90;;;3.10;;
70157;SDS011;57524;48.312;7.938;2022-08-14T08:31:44;4.27;;;2.60;;
70157;SDS011;57524;48.312;7.938;2022-08-14T08:34:12;4.70;;;3.00;;
70157;SDS011;57524;48.312;7.938;2022-08-14T08:36:40;4.20;;;2.63;;
70157;SDS011;57524;48.312;7.938;2022-08-14T08:39:06;5.07;;;3.00;;
70157;SDS011;57524;48.312;7.938;2022-08-14T08:41:40;8.25;;;3.20;;
70157;SDS011;57524;48.312;7.938;2022-08-14T08:44:09;4.73;;;2.80;;
70157;SDS011;57524;48.312;7.938;2022-08-14T08:46:36;4.88;;;2.72;;
70157;SDS011;57524;48.312;7.938;2022-08-14T08:49:04;4.57;;;2.80;;
70157;SDS011;57524;48.312;7.938;2022-08-14T08:51:35;5.03;;;2.88;;
70157;SDS011;57524;48.312;7.938;2022-08-14T08:54:04;4.47;;;2.90;;
70157;SDS011;57524;48.312;7.938;2022-08-14T08:56:36;4.03;;;2.40;;
70157;SDS011;57524;48.312;7.938;2022-08-14T08:59:16;4.30;;;2.88;;
70157;SDS011;57524;48.312;7.938;2022-08-14T09:01:50;5.00;;;2.78;;
70157;SDS011;57524;48.312;7.938;2022-08-14T09:04:18;5.57;;;3.00;;
70157;SDS011;57524;48.312;7.938;2022-08-14T09:06:46;5.35;;;2.83;;
70157;SDS011;57524;48.312;7.938;2022-08-14T09:09:20;4.50;;;2.70;;
70157;SDS011;57524;48.312;7.938;2022-08-14T09:11:48;5.28;;;2.90;;
70157;SDS011;57524;48.312;7.938;2022-08-14T09:14:19;4.47;;;2.75;;
70157;SDS011;57524;48.312;7.938;2022-08-14T09:16:46;4.30;;;2.70;;
70157;SDS011;57524;48.312;7.938;2022-08-14T09:19:14;4.30;;;2.90;;
70157;SDS011;57524;48.312;7.938;2022-08-14T09:21:41;4.30;;;2.90;;
70157;SDS011;57524;48.312;7.938;2022-08-14T09:24:08;6.10;;;2.90;;
70157;SDS011;57524;48.312;7.938;2022-08-14T09:26:35;4.70;;;3.20;;
70157;SDS011;57524;48.312;7.938;2022-08-14T09:29:03;4.55;;;2.92;;
70157;SDS011;57524;48.312;7.938;2022-08-14T09:31:33;5.15;;;3.30;;
70157;SDS011;57524;48.312;7.938;2022-08-14T09:34:02;5.33;;;3.27;;
70157;SDS011;57524;48.312;7.938;2022-08-14T09:36:42;4.85;;;3.15;;
70157;SDS011;57524;48.312;7.938;2022-08-14T09:39:20;5.10;;;3.13;;
70157;SDS011;57524;48.312;7.938;2022-08-14T09:44:59;4.60;;;3.00;;
70157;SDS011;57524;48.312;7.938;2022-08-14T09:47:40;5.07;;;3.00;;
70157;SDS011;57524;48.312;7.938;2022-08-14T09:50:21;4.47;;;3.10;;
70157;SDS011;57524;48.312;7.938;2022-08-14T09:52:51;4.30;;;3.00;;
70157;SDS011;57524;48.312;7.938;2022-08-14T09:55:20;5.35;;;3.08;;
70157;SDS011;57524;48.312;7.938;2022-08-14T09:57:48;4.70;;;3.10;;
70157;SDS011;57524;48.312;7.938;2022-08-14T10:00:15;4.23;;;2.93;;
70157;SDS011;57524;48.312;7.938;2022-08-14T10:02:51;5.05;;;2.97;;
70157;SDS011;57524;48.312;7.938;2022-08-14T10:05:26;5.35;;;3.45;;
70157;SDS011;57524;48.312;7.938;2022-08-14T10:07:54;5.50;;;3.60;;
70157;SDS011;57524;48.312;7.938;2022-08-14T10:10:28;5.25;;;3.40;;
70157;SDS011;57524;48.312;7.938;2022-08-14T10:12:56;5.43;;;3.50;;
70157;SDS011;57524;48.312;7.938;2022-08-14T10:15:26;5.10;;;3.63;;
70157;SDS011;57524;48.312;7.938;2022-08-14T10:18:08;5.38;;;3.47;;
70157;SDS011;57524;48.312;7.938;2022-08-14T10:20:38;7.38;;;3.70;;
70157;SDS011;57524;48.312;7.938;2022-08-14T10:23:12;4.82;;;3.55;;
70157;SDS011;57524;48.312;7.938;2022-08-14T10:25:41;5.40;;;3.60;;
70157;SDS011;57524;48.312;7.938;2022-08-14T10:28:09;5.25;;;3.60;;
70157;SDS011;57524;48.312;7.938;2022-08-14T10:30:39;6.32;;;3.50;;
70157;SDS011;57524;48.312;7.938;2022-08-14T10:33:08;5.70;;;3.70;;
70157;SDS011;57524;48.312;7.938;2022-08-14T10:35:38;6.68;;;3.80;;
70157;SDS011;57524;48.312;7.938;2022-08-14T10:38:05;5.03;;;3.50;;
70157;SDS011;57524;48.312;7.938;2022-08-14T10:40:32;5.28;;;3.30;;
70157;SDS011;57524;48.312;7.938;2022-08-14T10:42:59;6.68;;;3.63;;
70157;SDS011;57524;48.312;7.938;2022-08-14T10:45:29;5.68;;;3.50;;
70157;SDS011;57524;48.312;7.938;2022-08-14T10:47:57;5.18;;;3.60;;
70157;SDS011;57524;48.312;7.938;2022-08-14T10:50:31;5.77;;;3.60;;
70157;SDS011;57524;48.312;7.938;2022-08-14T10:52:58;5.05;;;3.42;;
70157;SDS011;57524;48.312;7.938;2022-08-14T10:55:30;5.07;;;3.60;;
70157;SDS011;57524;48.312;7.938;2022-08-14T10:58:01;6.15;;;3.50;;
70157;SDS011;57524;48.312;7.938;2022-08-14T11:00:31;5.55;;;3.20;;
70157;SDS011;57524;48.312;7.938;2022-08-14T11:02:58;4.67;;;3.27;;
70157;SDS011;57524;48.312;7.938;2022-08-14T11:05:36;5.63;;;3.35;;
70157;SDS011;57524;48.312;7.938;2022-08-14T11:08:07;5.88;;;3.55;;
70157;SDS011;57524;48.312;7.938;2022-08-14T11:10:38;6.50;;;3.60;;
70157;SDS011;57524;48.312;7.938;2022-08-14T11:13:07;6.03;;;3.40;;
70157;SDS011;57524;48.312;7.938;2022-08-14T11:15:34;5.73;;;3.47;;
70157;SDS011;57524;48.312;7.938;2022-08-14T11:18:01;5.47;;;3.22;;
70157;SDS011;57524;48.312;7.938;2022-08-14T11:20:29;5.93;;;3.50;;
70157;SDS011;57524;48.312;7.938;2022-08-14T11:23:00;5.45;;;3.42;;
70157;SDS011;57524;48.312;7.938;2022-08-14T11:25:27;5.78;;;3.40;;
70157;SDS011;57524;48.312;7.938;2022-08-14T11:27:57;4.70;;;3.23;;
70157;SDS011;57524;48.312;7.938;2022-08-14T11:30:25;5.45;;;3.00;;
70157;SDS011;57524;48.312;7.938;2022-08-14T11:32:53;4.68;;;2.80;;
70157;SDS011;57524;48.312;7.938;2022-08-14T11:35:22;4.95;;;2.85;;
70157;SDS011;57524;48.312;7.938;2022-08-14T11:37:50;5.57;;;2.80;;
70157;SDS011;57524;48.312;7.938;2022-08-14T11:40:20;4.60;;;2.67;;
70157;SDS011;57524;48.312;7.938;2022-08-14T11:42:48;4.38;;;2.47;;
70157;SDS011;57524;48.312;7.938;2022-08-14T11:45:20;4.43;;;2.40;;
70157;SDS011;57524;48.312;7.938;2022-08-14T11:47:47;4.55;;;2.50;;
70157;SDS011;57524;48.312;7.938;2022-08-14T11:50:15;4.20;;;2.50;;
70157;SDS011;57524;48.312;7.938;2022-08-14T11:52:44;4.37;;;2.60;;
70157;SDS011;57524;48.312;7.938;2022-08-14T11:55:11;4.20;;;2.40;;
70157;SDS011;57524;48.312;7.938;2022-08-14T11:57:41;4.05;;;2.28;;
70157;SDS011;57524;48.312;7.938;2022-08-14T12:00:09;4.80;;;2.40;;
70157;SDS011;57524;48.312;7.938;2022-08-14T12:02:48;5.03;;;2.35;;
70157;SDS011;57524;48.312;7.938;2022-08-14T12:05:17;7.00;;;2.40;;
70157;SDS011;57524;48.312;7.938;2022-08-14T12:07:54;3.70;;;2.38;;
70157;SDS011;57524;48.312;7.938;2022-08-14T12:10:21;5.55;;;2.30;;
70157;SDS011;57524;48.312;7.938;2022-08-14T12:12:49;3.85;;;2.33;;
70157;SDS011;57524;48.312;7.938;2022-08-14T12:15:26;4.35;;;2.47;;
70157;SDS011;57524;48.312;7.938;2022-08-14T12:17:54;4.70;;;2.60;;
70157;SDS011;57524;48.312;7.938;2022-08-14T12:20:27;4.85;;;2.75;;
70157;SDS011;57524;48.312;7.938;2022-08-14T12:22:55;4.10;;;2.67;;
70157;SDS011;57524;48.312;7.938;2022-08-14T12:25:23;4.22;;;2.72;;
70157;SDS011;57524;48.312;7.938;2022-08-14T12:27:51;4.38;;;2.80;;
70157;SDS011;57524;48.312;7.938;2022-08-14T12:30:26;5.77;;;2.80;;
70157;SDS011;57524;48.312;7.938;2022-08-14T12:32:56;4.13;;;2.63;;
70157;SDS011;57524;48.312;7.938;2022-08-14T12:35:26;4.50;;;2.35;;
70157;SDS011;57524;48.312;7.938;2022-08-14T12:38:01;4.50;;;2.75;;
70157;SDS011;57524;48.312;7.938;2022-08-14T12:40:28;5.28;;;2.90;;
70157;SDS011;57524;48.312;7.938;2022-08-14T12:42:59;4.60;;;3.10;;
70157;SDS011;57524;48.312;7.938;2022-08-14T12:45:31;5.40;;;2.80;;
70157;SDS011;57524;48.312;7.938;2022-08-14T12:48:01;4.35;;;2.78;;
70157;SDS011;57524;48.312;7.938;2022-08-14T12:50:36;4.50;;;2.90;;
70157;SDS011;57524;48.312;7.938;2022-08-14T12:53:03;5.28;;;2.72;;
70157;SDS011;57524;48.312;7.938;2022-08-14T12:55:32;6.57;;;2.80;;
70157;SDS011;57524;48.312;7.938;2022-08-14T12:58:01;4.72;;;2.90;;
70157;SDS011;57524;48.312;7.938;2022-08-14T13:00:30;4.85;;;2.60;;
70157;SDS011;57524;48.312;7.938;2022-08-14T13:02:59;5.20;;;2.83;;
70157;SDS011;57524;48.312;7.938;2022-08-14T13:05:27;4.43;;;2.60;;
70157;SDS011;57524;48.312;7.938;2022-08-14T13:07:56;4.30;;;2.40;;
70157;SDS011;57524;48.312;7.938;2022-08-14T13:10:23;3.90;;;2.50;;
70157;SDS011;57524;48.312;7.938;2022-08-14T13:12:53;5.75;;;3.15;;
70157;SDS011;57524;48.312;7.938;2022-08-14T13:15:23;6.68;;;2.90;;
70157;SDS011;57524;48.312;7.938;2022-08-14T13:17:51;4.93;;;3.08;;
70157;SDS011;57524;48.312;7.938;2022-08-14T13:20:21;5.53;;;3.20;;
70157;SDS011;57524;48.312;7.938;2022-08-14T13:22:49;6.00;;;3.55;;
70157;SDS011;57524;48.312;7.938;2022-08-14T13:25:17;6.10;;;3.25;;
70157;SDS011;57524;48.312;7.938;2022-08-14T13:27:47;5.45;;;3.30;;
70157;SDS011;57524;48.312;7.938;2022-08-14T13:30:15;5.90;;;3.30;;
70157;SDS011;57524;48.312;7.938;2022-08-14T13:32:45;5.23;;;3.80;;
70157;SDS011;57524;48.312;7.938;2022-08-14T13:35:13;5.22;;;3.80;;
70157;SDS011;57524;48.312;7.938;2022-08-14T13:37:41;6.03;;;4.20;;
70157;SDS011;57524;48.312;7.938;2022-08-14T13:40:09;7.55;;;3.95;;
70157;SDS011;57524;48.312;7.938;2022-08-14T13:42:40;6.93;;;4.50;;
70157;SDS011;57524;48.312;7.938;2022-08-14T13:45:09;6.93;;;4.50;;
70157;SDS011;57524;48.312;7.938;2022-08-14T13:47:37;7.53;;;5.00;;
70157;SDS011;57524;48.312;7.938;2022-08-14T13:50:07;7.70;;;4.97;;
70157;SDS011;57524;48.312;7.938;2022-08-14T13:52:38;7.00;;;5.20;;
70157;SDS011;57524;48.312;7.938;2022-08-14T13:55:07;7.18;;;4.90;;
70157;SDS011;57524;48.312;7.938;2022-08-14T13:57:37;7.50;;;5.43;;
70157;SDS011;57524;48.312;7.938;2022-08-14T14:00:09;9.13;;;5.93;;
70157;SDS011;57524;48.312;7.938;2022-08-14T14:02:40;8.60;;;6.20;;
70157;SDS011;57524;48.312;7.938;2022-08-14T14:05:12;8.80;;;6.18;;
70157;SDS011;57524;48.312;7.938;2022-08-14T14:07:43;10.60;;;6.35;;
70157;SDS011;57524;48.312;7.938;2022-08-14T14:10:11;9.27;;;5.87;;
70157;SDS011;57524;48.312;7.938;2022-08-14T14:12:41;9.55;;;5.65;;
70157;SDS011;57524;48.312;7.938;2022-08-14T14:15:09;11.13;;;5.50;;
70157;SDS011;57524;48.312;7.938;2022-08-14T14:17:38;7.38;;;5.10;;
70157;SDS011;57524;48.312;7.938;2022-08-14T14:20:06;8.25;;;5.15;;
70157;SDS011;57524;48.312;7.938;2022-08-14T14:22:39;10.13;;;5.17;;
70157;SDS011;57524;48.312;7.938;2022-08-14T14:25:07;9.85;;;4.60;;
70157;SDS011;57524;48.312;7.938;2022-08-14T14:27:35;9.68;;;4.55;;
70157;SDS011;57524;48.312;7.938;2022-08-14T14:30:03;9.07;;;3.95;;
70157;SDS011;57524;48.312;7.938;2022-08-14T14:32:31;6.93;;;3.70;;
70157;SDS011;57524;48.312;7.938;2022-08-14T14:34:59;7.57;;;4.00;;
70157;SDS011;57524;48.312;7.938;2022-08-14T14:37:27;6.82;;;3.85;;
70157;SDS011;57524;48.312;7.938;2022-08-14T14:39:57;7.85;;;4.03;;
70157;SDS011;57524;48.312;7.938;2022-08-14T14:42:25;6.13;;;4.15;;
70157;SDS011;57524;48.312;7.938;2022-08-14T14:44:54;6.80;;;4.07;;
70157;SDS011;57524;48.312;7.938;2022-08-14T14:47:24;5.73;;;3.60;;
70157;SDS011;57524;48.312;7.938;2022-08-14T14:49:52;6.97;;;3.90;;
70157;SDS011;57524;48.312;7.938;2022-08-14T14:52:20;6.47;;;3.70;;
70157;SDS011;57524;48.312;7.938;2022-08-14T14:54:47;7.20;;;3.85;;
70157;SDS011;57524;48.312;7.938;2022-08-14T14:57:16;8.02;;;3.80;;
70157;SDS011;57524;48.312;7.938;2022-08-14T14:59:46;7.07;;;3.50;;
70157;SDS011;57524;48.312;7.938;2022-08-14T15:02:16;7.38;;;3.92;;